Harvey Well — 3ETH2 — position and weather

sailwx.info

Track history (hours):
 
Tides and Currents Weather Stations Pressure Air Temp Water Temp Dewpoint Dewpoint Depression Visibility Wind Speed Wind Dir Waves Ship Positions

Harvey Well

Last reported at 2018-Jul-27 21:23 UTC. Time now 2018-Aug-14 07:00 UTC.
Position N 30°59' E 122°33'.
Warning: this ship's position is 17 days out of date.

Length 154 m; draft 5.4 m.

Type: Cargo ship. MMSI: 357876000.

Date/timePositionNaut miles runAvg speedWind from/ knotsBaromVisibWave heightAir tempDewpointWater temp
2018-Jul-27 21:23N 30°59' E 122°33'1314.4
2018-Jul-27 20:30N 31°02' E 122°19'711.7
2018-Jul-27 19:55N 31°03' E 122°11'614.5
2018-Jul-27 19:30N 31°04' E 122°04'714.1
2018-Jul-27 19:00N 31°07' E 121°57'713.7
2018-Jul-27 18:29N 31°11' E 121°50'8210.9
2018-Jul-27 10:59N 32°00' E 120°34'613.1
2018-Jul-27 10:30N 32°02' E 120°27'4 7.9
2018-Jul-27 10:00N 31°58' E 120°25'  
2018-Jul-23 04:29N 31°58' E 120°24'0 0.0
2018-Jul-22 18:37N 31°58' E 120°24'0 0.0
2018-Jul-22 12:19N 31°58' E 120°24'0 0.0
2018-Jul-22 11:31N 31°58' E 120°24'0 0.0
2018-Jul-22 07:55N 31°58' E 120°24'0 0.0
2018-Jul-22 07:25N 31°58' E 120°24'0 0.0
2018-Jul-22 06:43N 31°58' E 120°24'0 0.0
2018-Jul-22 06:07N 31°58' E 120°24'0 0.0
2018-Jul-22 05:49N 31°58' E 120°24'0 0.0
2018-Jul-22 03:01N 31°58' E 120°24'0 0.0
2018-Jul-22 02:37N 31°58' E 120°24'1 0.0
2018-Jul-20 07:58N 31°58' E 120°25'3 6.4
2018-Jul-20 07:29N 32°01' E 120°27'87 8.1
2018-Jul-19 20:40N 31°16' E 121°54'16 9.9
2018-Jul-19 19:02N 31°10' E 122°12'310.8
2018-Jul-19 18:46N 31°08' E 122°15'310.4
2018-Jul-19 18:30N 31°07' E 122°18'9 8.9
2018-Jul-19 17:29N 31°08' E 122°28'5 6.3
2018-Jul-19 16:41N 31°07' E 122°34'  
Track history (hours):
 
Tides and Currents Weather Stations Pressure Air Temp Water Temp Dewpoint Dewpoint Depression Visibility Wind Speed Wind Dir Waves Ship Positions

Harvey Well

Last reported at 2018-Jul-27 21:23 UTC. Time now 2018-Aug-14 07:00 UTC.
Position N 30°59' E 122°33'.
Warning: this ship's position is 17 days out of date.

Length 154 m; draft 5.4 m.

Type: Cargo ship. MMSI: 357876000.

Date/timePositionNaut miles runAvg speedWind from/ knotsBaromVisibWave heightAir tempDewpointWater temp
2018-Jul-27 21:23N 30°59' E 122°33'1314.4
2018-Jul-27 20:30N 31°02' E 122°19'711.7
2018-Jul-27 19:55N 31°03' E 122°11'614.5
2018-Jul-27 19:30N 31°04' E 122°04'714.1
2018-Jul-27 19:00N 31°07' E 121°57'713.7
2018-Jul-27 18:29N 31°11' E 121°50'8210.9
2018-Jul-27 10:59N 32°00' E 120°34'613.1
2018-Jul-27 10:30N 32°02' E 120°27'4 7.9
2018-Jul-27 10:00N 31°58' E 120°25'  
2018-Jul-23 04:29N 31°58' E 120°24'0 0.0
2018-Jul-22 18:37N 31°58' E 120°24'0 0.0
2018-Jul-22 12:19N 31°58' E 120°24'0 0.0
2018-Jul-22 11:31N 31°58' E 120°24'0 0.0
2018-Jul-22 07:55N 31°58' E 120°24'0 0.0
2018-Jul-22 07:25N 31°58' E 120°24'0 0.0
2018-Jul-22 06:43N 31°58' E 120°24'0 0.0
2018-Jul-22 06:07N 31°58' E 120°24'0 0.0
2018-Jul-22 05:49N 31°58' E 120°24'0 0.0
2018-Jul-22 03:01N 31°58' E 120°24'0 0.0
2018-Jul-22 02:37N 31°58' E 120°24'1 0.0
2018-Jul-20 07:58N 31°58' E 120°25'3 6.4
2018-Jul-20 07:29N 32°01' E 120°27'87 8.1
2018-Jul-19 20:40N 31°16' E 121°54'16 9.9
2018-Jul-19 19:02N 31°10' E 122°12'310.8
2018-Jul-19 18:46N 31°08' E 122°15'310.4
2018-Jul-19 18:30N 31°07' E 122°18'9 8.9
2018-Jul-19 17:29N 31°08' E 122°28'5 6.3
2018-Jul-19 16:41N 31°07' E 122°34'  

Dump ship's entire track history